sensor_id;sensor_type;location;lat;lon;timestamp;P1;durP1;ratioP1;P2;durP2;ratioP2
966;SDS011;56108;48.730;9.304;2023-11-18T00:00:17;3.03;;;2.90;;
966;SDS011;56108;48.730;9.304;2023-11-18T00:02:26;4.20;;;3.70;;
966;SDS011;56108;48.730;9.304;2023-11-18T00:04:33;3.67;;;3.38;;
966;SDS011;56108;48.730;9.304;2023-11-18T00:06:41;4.45;;;2.90;;
966;SDS011;56108;48.730;9.304;2023-11-18T00:08:51;3.25;;;3.03;;
966;SDS011;56108;48.730;9.304;2023-11-18T00:11:00;3.55;;;3.35;;
966;SDS011;56108;48.730;9.304;2023-11-18T00:13:08;4.63;;;3.53;;
966;SDS011;56108;48.730;9.304;2023-11-18T00:15:17;3.35;;;3.00;;
966;SDS011;56108;48.730;9.304;2023-11-18T00:17:25;3.65;;;3.13;;
966;SDS011;56108;48.730;9.304;2023-11-18T00:19:34;4.20;;;3.80;;
966;SDS011;56108;48.730;9.304;2023-11-18T00:21:42;3.85;;;3.40;;
966;SDS011;56108;48.730;9.304;2023-11-18T00:23:48;3.58;;;3.35;;
966;SDS011;56108;48.730;9.304;2023-11-18T00:25:57;3.30;;;3.00;;
966;SDS011;56108;48.730;9.304;2023-11-18T00:28:09;3.20;;;3.00;;
966;SDS011;56108;48.730;9.304;2023-11-18T00:30:17;4.07;;;3.67;;
966;SDS011;56108;48.730;9.304;2023-11-18T00:32:26;2.92;;;2.72;;
966;SDS011;56108;48.730;9.304;2023-11-18T00:34:34;15.38;;;3.20;;
966;SDS011;56108;48.730;9.304;2023-11-18T00:36:43;2.75;;;2.55;;
966;SDS011;56108;48.730;9.304;2023-11-18T00:38:51;4.03;;;3.67;;
966;SDS011;56108;48.730;9.304;2023-11-18T00:40:57;4.10;;;3.80;;
966;SDS011;56108;48.730;9.304;2023-11-18T00:43:05;3.38;;;3.15;;
966;SDS011;56108;48.730;9.304;2023-11-18T00:45:16;3.55;;;3.35;;
966;SDS011;56108;48.730;9.304;2023-11-18T00:47:25;3.42;;;2.67;;
966;SDS011;56108;48.730;9.304;2023-11-18T00:49:34;3.35;;;2.88;;
966;SDS011;56108;48.730;9.304;2023-11-18T00:51:39;3.67;;;3.00;;
966;SDS011;56108;48.730;9.304;2023-11-18T00:53:49;3.88;;;3.05;;
966;SDS011;56108;48.730;9.304;2023-11-18T00:55:58;3.45;;;3.15;;
966;SDS011;56108;48.730;9.304;2023-11-18T00:58:07;3.75;;;3.45;;
966;SDS011;56108;48.730;9.304;2023-11-18T01:00:18;3.05;;;2.95;;
966;SDS011;56108;48.730;9.304;2023-11-18T01:02:27;3.80;;;3.50;;
966;SDS011;56108;48.730;9.304;2023-11-18T01:04:36;3.22;;;2.90;;
966;SDS011;56108;48.730;9.304;2023-11-18T01:06:44;3.75;;;3.35;;
966;SDS011;56108;48.730;9.304;2023-11-18T01:08:53;3.17;;;2.97;;
966;SDS011;56108;48.730;9.304;2023-11-18T01:11:01;3.60;;;3.33;;
966;SDS011;56108;48.730;9.304;2023-11-18T01:13:11;3.80;;;3.47;;
966;SDS011;56108;48.730;9.304;2023-11-18T01:15:21;3.28;;;2.97;;
966;SDS011;56108;48.730;9.304;2023-11-18T01:17:28;6.28;;;4.15;;
966;SDS011;56108;48.730;9.304;2023-11-18T01:19:36;5.47;;;4.10;;
966;SDS011;56108;48.730;9.304;2023-11-18T01:21:45;4.43;;;3.90;;
966;SDS011;56108;48.730;9.304;2023-11-18T01:23:55;3.63;;;3.33;;
966;SDS011;56108;48.730;9.304;2023-11-18T01:26:05;3.42;;;3.13;;
966;SDS011;56108;48.730;9.304;2023-11-18T01:28:14;4.97;;;4.40;;
966;SDS011;56108;48.730;9.304;2023-11-18T01:30:25;4.32;;;3.35;;
966;SDS011;56108;48.730;9.304;2023-11-18T01:32:35;4.13;;;3.80;;
966;SDS011;56108;48.730;9.304;2023-11-18T01:34:45;5.78;;;4.43;;
966;SDS011;56108;48.730;9.304;2023-11-18T01:36:55;4.35;;;3.28;;
966;SDS011;56108;48.730;9.304;2023-11-18T01:39:01;3.70;;;3.40;;
966;SDS011;56108;48.730;9.304;2023-11-18T01:41:12;3.45;;;3.15;;
966;SDS011;56108;48.730;9.304;2023-11-18T01:43:22;3.15;;;2.85;;
966;SDS011;56108;48.730;9.304;2023-11-18T01:45:33;4.10;;;3.55;;
966;SDS011;56108;48.730;9.304;2023-11-18T01:47:41;4.25;;;3.88;;
966;SDS011;56108;48.730;9.304;2023-11-18T01:49:53;3.33;;;3.13;;
966;SDS011;56108;48.730;9.304;2023-11-18T01:52:02;3.38;;;3.08;;
966;SDS011;56108;48.730;9.304;2023-11-18T01:54:12;3.08;;;2.78;;
966;SDS011;56108;48.730;9.304;2023-11-18T01:56:24;3.53;;;3.22;;
966;SDS011;56108;48.730;9.304;2023-11-18T01:58:33;3.97;;;3.63;;
966;SDS011;56108;48.730;9.304;2023-11-18T02:00:44;3.88;;;3.58;;
966;SDS011;56108;48.730;9.304;2023-11-18T02:02:56;2.85;;;2.65;;
966;SDS011;56108;48.730;9.304;2023-11-18T02:05:04;3.50;;;3.25;;
966;SDS011;56108;48.730;9.304;2023-11-18T02:07:13;4.05;;;3.65;;
966;SDS011;56108;48.730;9.304;2023-11-18T02:09:22;4.22;;;3.92;;
966;SDS011;56108;48.730;9.304;2023-11-18T02:11:36;3.58;;;3.28;;
966;SDS011;56108;48.730;9.304;2023-11-18T02:13:48;3.30;;;3.00;;
966;SDS011;56108;48.730;9.304;2023-11-18T02:16:00;4.22;;;3.83;;
966;SDS011;56108;48.730;9.304;2023-11-18T02:18:12;3.40;;;3.10;;
966;SDS011;56108;48.730;9.304;2023-11-18T02:20:23;4.20;;;3.70;;
966;SDS011;56108;48.730;9.304;2023-11-18T02:22:29;2.97;;;2.55;;
966;SDS011;56108;48.730;9.304;2023-11-18T02:24:37;4.00;;;3.60;;
966;SDS011;56108;48.730;9.304;2023-11-18T02:26:49;3.95;;;3.65;;
966;SDS011;56108;48.730;9.304;2023-11-18T02:28:58;3.35;;;3.05;;
966;SDS011;56108;48.730;9.304;2023-11-18T02:31:09;3.40;;;3.10;;
966;SDS011;56108;48.730;9.304;2023-11-18T02:33:22;2.00;;;1.90;;
966;SDS011;56108;48.730;9.304;2023-11-18T02:35:41;1.95;;;1.80;;
966;SDS011;56108;48.730;9.304;2023-11-18T02:37:57;2.15;;;1.88;;
966;SDS011;56108;48.730;9.304;2023-11-18T02:40:06;2.65;;;2.45;;
966;SDS011;56108;48.730;9.304;2023-11-18T02:42:22;2.40;;;1.65;;
966;SDS011;56108;48.730;9.304;2023-11-18T02:44:32;2.10;;;1.90;;
966;SDS011;56108;48.730;9.304;2023-11-18T02:46:42;2.72;;;2.53;;
966;SDS011;56108;48.730;9.304;2023-11-18T02:48:51;2.78;;;2.58;;
966;SDS011;56108;48.730;9.304;2023-11-18T02:51:01;2.50;;;2.30;;
966;SDS011;56108;48.730;9.304;2023-11-18T02:53:09;5.30;;;3.05;;
966;SDS011;56108;48.730;9.304;2023-11-18T02:55:18;3.03;;;2.78;;
966;SDS011;56108;48.730;9.304;2023-11-18T02:57:30;2.60;;;2.38;;
966;SDS011;56108;48.730;9.304;2023-11-18T02:59:39;2.92;;;2.53;;
966;SDS011;56108;48.730;9.304;2023-11-18T03:01:47;2.22;;;2.10;;
966;SDS011;56108;48.730;9.304;2023-11-18T03:03:56;2.72;;;2.53;;
966;SDS011;56108;48.730;9.304;2023-11-18T03:06:05;3.13;;;2.50;;
966;SDS011;56108;48.730;9.304;2023-11-18T03:08:16;2.42;;;2.33;;
966;SDS011;56108;48.730;9.304;2023-11-18T03:10:22;2.75;;;2.55;;
966;SDS011;56108;48.730;9.304;2023-11-18T03:12:33;2.97;;;2.78;;
966;SDS011;56108;48.730;9.304;2023-11-18T03:14:40;3.15;;;2.45;;
966;SDS011;56108;48.730;9.304;2023-11-18T03:16:49;2.92;;;2.50;;
966;SDS011;56108;48.730;9.304;2023-11-18T03:19:00;3.83;;;3.03;;
966;SDS011;56108;48.730;9.304;2023-11-18T03:21:10;3.25;;;2.88;;
966;SDS011;56108;48.730;9.304;2023-11-18T03:23:19;3.15;;;2.85;;
966;SDS011;56108;48.730;9.304;2023-11-18T03:25:28;3.03;;;2.83;;
966;SDS011;56108;48.730;9.304;2023-11-18T03:27:38;3.50;;;3.20;;
966;SDS011;56108;48.730;9.304;2023-11-18T03:29:47;4.85;;;4.53;;
966;SDS011;56108;48.730;9.304;2023-11-18T03:31:59;4.03;;;3.13;;
966;SDS011;56108;48.730;9.304;2023-11-18T03:34:08;3.40;;;3.10;;
966;SDS011;56108;48.730;9.304;2023-11-18T03:36:18;4.13;;;3.65;;
966;SDS011;56108;48.730;9.304;2023-11-18T03:38:27;4.05;;;3.75;;
966;SDS011;56108;48.730;9.304;2023-11-18T03:40:38;3.85;;;3.25;;
966;SDS011;56108;48.730;9.304;2023-11-18T03:42:49;4.63;;;4.05;;
966;SDS011;56108;48.730;9.304;2023-11-18T03:44:58;4.93;;;4.00;;
966;SDS011;56108;48.730;9.304;2023-11-18T03:47:04;3.80;;;3.00;;
966;SDS011;56108;48.730;9.304;2023-11-18T03:49:13;5.45;;;3.40;;
966;SDS011;56108;48.730;9.304;2023-11-18T03:51:22;3.50;;;3.20;;
966;SDS011;56108;48.730;9.304;2023-11-18T03:53:28;3.88;;;3.58;;
966;SDS011;56108;48.730;9.304;2023-11-18T03:55:38;3.05;;;2.85;;
966;SDS011;56108;48.730;9.304;2023-11-18T03:57:44;3.35;;;3.10;;
966;SDS011;56108;48.730;9.304;2023-11-18T03:59:55;3.50;;;3.20;;
966;SDS011;56108;48.730;9.304;2023-11-18T04:02:04;2.60;;;2.40;;
966;SDS011;56108;48.730;9.304;2023-11-18T04:04:12;3.67;;;3.38;;
966;SDS011;56108;48.730;9.304;2023-11-18T04:06:21;2.75;;;2.55;;
966;SDS011;56108;48.730;9.304;2023-11-18T04:08:30;4.60;;;4.20;;
966;SDS011;56108;48.730;9.304;2023-11-18T04:10:36;4.35;;;3.58;;
966;SDS011;56108;48.730;9.304;2023-11-18T04:12:44;4.65;;;4.25;;
966;SDS011;56108;48.730;9.304;2023-11-18T04:14:51;3.15;;;2.95;;
966;SDS011;56108;48.730;9.304;2023-11-18T04:17:03;3.70;;;3.40;;
966;SDS011;56108;48.730;9.304;2023-11-18T04:19:12;4.03;;;3.63;;
966;SDS011;56108;48.730;9.304;2023-11-18T04:21:20;4.53;;;3.75;;
966;SDS011;56108;48.730;9.304;2023-11-18T04:23:28;4.43;;;3.97;;
966;SDS011;56108;48.730;9.304;2023-11-18T04:25:39;4.05;;;3.75;;
966;SDS011;56108;48.730;9.304;2023-11-18T04:27:48;6.32;;;3.08;;
966;SDS011;56108;48.730;9.304;2023-11-18T04:29:59;5.45;;;3.78;;
966;SDS011;56108;48.730;9.304;2023-11-18T04:32:07;4.20;;;3.75;;
966;SDS011;56108;48.730;9.304;2023-11-18T04:34:19;4.22;;;3.92;;
966;SDS011;56108;48.730;9.304;2023-11-18T04:36:28;7.10;;;4.38;;
966;SDS011;56108;48.730;9.304;2023-11-18T04:38:36;3.88;;;3.53;;
966;SDS011;56108;48.730;9.304;2023-11-18T04:40:44;6.03;;;4.45;;
966;SDS011;56108;48.730;9.304;2023-11-18T04:42:52;5.45;;;4.22;;
966;SDS011;56108;48.730;9.304;2023-11-18T04:45:04;5.72;;;4.97;;
966;SDS011;56108;48.730;9.304;2023-11-18T04:47:14;3.45;;;3.15;;
966;SDS011;56108;48.730;9.304;2023-11-18T04:49:24;3.50;;;3.20;;
966;SDS011;56108;48.730;9.304;2023-11-18T04:51:32;5.25;;;4.70;;
966;SDS011;56108;48.730;9.304;2023-11-18T04:53:41;4.55;;;3.85;;
966;SDS011;56108;48.730;9.304;2023-11-18T04:55:49;4.18;;;3.78;;
966;SDS011;56108;48.730;9.304;2023-11-18T04:57:57;5.10;;;4.00;;
966;SDS011;56108;48.730;9.304;2023-11-18T05:00:09;4.80;;;4.30;;
966;SDS011;56108;48.730;9.304;2023-11-18T05:02:22;4.18;;;3.83;;
966;SDS011;56108;48.730;9.304;2023-11-18T05:04:30;4.18;;;3.45;;
966;SDS011;56108;48.730;9.304;2023-11-18T05:06:39;4.63;;;4.00;;
966;SDS011;56108;48.730;9.304;2023-11-18T05:08:47;5.32;;;4.30;;
966;SDS011;56108;48.730;9.304;2023-11-18T05:10:56;4.72;;;4.22;;
966;SDS011;56108;48.730;9.304;2023-11-18T05:13:04;3.83;;;3.17;;
966;SDS011;56108;48.730;9.304;2023-11-18T05:15:16;5.05;;;3.83;;
966;SDS011;56108;48.730;9.304;2023-11-18T05:17:29;4.50;;;4.15;;
966;SDS011;56108;48.730;9.304;2023-11-18T05:19:43;10.20;;;5.07;;
966;SDS011;56108;48.730;9.304;2023-11-18T05:21:51;5.22;;;4.10;;
966;SDS011;56108;48.730;9.304;2023-11-18T05:24:00;5.00;;;4.50;;
966;SDS011;56108;48.730;9.304;2023-11-18T05:26:06;5.32;;;4.55;;
966;SDS011;56108;48.730;9.304;2023-11-18T05:28:15;3.60;;;3.30;;
966;SDS011;56108;48.730;9.304;2023-11-18T05:30:27;4.65;;;4.30;;
966;SDS011;56108;48.730;9.304;2023-11-18T05:32:35;4.55;;;4.18;;
966;SDS011;56108;48.730;9.304;2023-11-18T05:34:45;5.57;;;4.03;;
966;SDS011;56108;48.730;9.304;2023-11-18T05:36:51;4.70;;;4.30;;
966;SDS011;56108;48.730;9.304;2023-11-18T05:38:59;5.45;;;4.22;;
966;SDS011;56108;48.730;9.304;2023-11-18T05:41:05;4.60;;;4.20;;
966;SDS011;56108;48.730;9.304;2023-11-18T05:43:21;4.72;;;4.32;;
966;SDS011;56108;48.730;9.304;2023-11-18T05:45:36;5.93;;;4.03;;
966;SDS011;56108;48.730;9.304;2023-11-18T05:48:01;5.55;;;4.50;;
966;SDS011;56108;48.730;9.304;2023-11-18T05:50:09;6.10;;;5.30;;
966;SDS011;56108;48.730;9.304;2023-11-18T05:52:19;5.28;;;4.78;;
966;SDS011;56108;48.730;9.304;2023-11-18T05:54:28;5.95;;;5.35;;
966;SDS011;56108;48.730;9.304;2023-11-18T05:56:36;4.65;;;4.25;;
966;SDS011;56108;48.730;9.304;2023-11-18T05:58:44;4.95;;;4.50;;
966;SDS011;56108;48.730;9.304;2023-11-18T06:00:55;3.47;;;3.20;;
966;SDS011;56108;48.730;9.304;2023-11-18T06:03:01;3.92;;;3.60;;
966;SDS011;56108;48.730;9.304;2023-11-18T06:05:10;5.18;;;3.75;;
966;SDS011;56108;48.730;9.304;2023-11-18T06:07:18;4.90;;;3.95;;
966;SDS011;56108;48.730;9.304;2023-11-18T06:09:28;5.05;;;3.65;;
966;SDS011;56108;48.730;9.304;2023-11-18T06:11:33;4.45;;;4.05;;
966;SDS011;56108;48.730;9.304;2023-11-18T06:13:46;4.35;;;3.95;;
966;SDS011;56108;48.730;9.304;2023-11-18T06:15:58;4.55;;;4.15;;
966;SDS011;56108;48.730;9.304;2023-11-18T06:18:06;6.32;;;4.13;;
966;SDS011;56108;48.730;9.304;2023-11-18T06:20:15;5.03;;;4.35;;
966;SDS011;56108;48.730;9.304;2023-11-18T06:22:25;5.28;;;4.18;;
966;SDS011;56108;48.730;9.304;2023-11-18T06:24:30;4.25;;;3.95;;
966;SDS011;56108;48.730;9.304;2023-11-18T06:26:39;5.68;;;4.20;;
966;SDS011;56108;48.730;9.304;2023-11-18T06:28:47;5.10;;;4.40;;
966;SDS011;56108;48.730;9.304;2023-11-18T06:30:58;5.22;;;4.43;;
966;SDS011;56108;48.730;9.304;2023-11-18T06:33:07;4.45;;;4.10;;
966;SDS011;56108;48.730;9.304;2023-11-18T06:35:15;4.55;;;4.00;;
966;SDS011;56108;48.730;9.304;2023-11-18T06:37:31;3.50;;;3.20;;
966;SDS011;56108;48.730;9.304;2023-11-18T06:39:41;3.85;;;3.53;;
966;SDS011;56108;48.730;9.304;2023-11-18T06:41:52;4.25;;;3.83;;
966;SDS011;56108;48.730;9.304;2023-11-18T06:44:01;5.10;;;4.60;;
966;SDS011;56108;48.730;9.304;2023-11-18T06:46:17;5.05;;;3.72;;
966;SDS011;56108;48.730;9.304;2023-11-18T06:48:25;4.20;;;3.88;;
966;SDS011;56108;48.730;9.304;2023-11-18T06:50:34;4.50;;;4.05;;
966;SDS011;56108;48.730;9.304;2023-11-18T06:52:44;4.15;;;3.75;;
966;SDS011;56108;48.730;9.304;2023-11-18T06:54:53;5.55;;;4.32;;
966;SDS011;56108;48.730;9.304;2023-11-18T06:57:01;4.78;;;4.43;;
966;SDS011;56108;48.730;9.304;2023-11-18T06:59:10;7.22;;;4.80;;
966;SDS011;56108;48.730;9.304;2023-11-18T07:01:23;4.35;;;3.95;;
966;SDS011;56108;48.730;9.304;2023-11-18T07:03:33;7.10;;;6.20;;
966;SDS011;56108;48.730;9.304;2023-11-18T07:05:41;6.50;;;5.40;;
966;SDS011;56108;48.730;9.304;2023-11-18T07:07:50;12.13;;;6.57;;
966;SDS011;56108;48.730;9.304;2023-11-18T07:09:58;7.28;;;5.25;;
966;SDS011;56108;48.730;9.304;2023-11-18T07:12:06;8.48;;;5.25;;
966;SDS011;56108;48.730;9.304;2023-11-18T07:14:15;5.30;;;4.82;;
966;SDS011;56108;48.730;9.304;2023-11-18T07:16:26;6.72;;;4.85;;
966;SDS011;56108;48.730;9.304;2023-11-18T07:18:33;6.55;;;5.47;;
966;SDS011;56108;48.730;9.304;2023-11-18T07:20:41;5.05;;;4.60;;
966;SDS011;56108;48.730;9.304;2023-11-18T07:22:50;6.28;;;4.82;;
966;SDS011;56108;48.730;9.304;2023-11-18T07:24:59;5.93;;;5.32;;
966;SDS011;56108;48.730;9.304;2023-11-18T07:27:07;7.50;;;6.50;;
966;SDS011;56108;48.730;9.304;2023-11-18T07:29:16;5.13;;;4.63;;
966;SDS011;56108;48.730;9.304;2023-11-18T07:31:27;6.00;;;5.40;;
966;SDS011;56108;48.730;9.304;2023-11-18T07:33:35;7.88;;;5.35;;
966;SDS011;56108;48.730;9.304;2023-11-18T07:35:48;7.57;;;6.28;;
966;SDS011;56108;48.730;9.304;2023-11-18T07:37:57;6.43;;;5.88;;
966;SDS011;56108;48.730;9.304;2023-11-18T07:40:07;6.63;;;5.75;;
966;SDS011;56108;48.730;9.304;2023-11-18T07:42:16;5.68;;;4.68;;
966;SDS011;56108;48.730;9.304;2023-11-18T07:44:27;5.20;;;4.25;;
966;SDS011;56108;48.730;9.304;2023-11-18T07:46:40;3.88;;;3.50;;
966;SDS011;56108;48.730;9.304;2023-11-18T07:48:48;6.85;;;3.63;;
966;SDS011;56108;48.730;9.304;2023-11-18T07:50:57;4.63;;;3.10;;
966;SDS011;56108;48.730;9.304;2023-11-18T07:53:05;6.45;;;4.57;;
966;SDS011;56108;48.730;9.304;2023-11-18T07:55:14;4.53;;;4.13;;
966;SDS011;56108;48.730;9.304;2023-11-18T07:57:20;6.40;;;4.20;;
966;SDS011;56108;48.730;9.304;2023-11-18T07:59:28;4.10;;;3.75;;
966;SDS011;56108;48.730;9.304;2023-11-18T08:01:43;7.20;;;4.00;;
966;SDS011;56108;48.730;9.304;2023-11-18T08:03:52;5.20;;;3.50;;
966;SDS011;56108;48.730;9.304;2023-11-18T08:05:58;4.47;;;3.88;;
966;SDS011;56108;48.730;9.304;2023-11-18T08:08:07;4.10;;;3.70;;
966;SDS011;56108;48.730;9.304;2023-11-18T08:10:15;4.43;;;4.03;;
966;SDS011;56108;48.730;9.304;2023-11-18T08:12:24;7.20;;;4.32;;
966;SDS011;56108;48.730;9.304;2023-11-18T08:14:32;6.60;;;5.30;;
966;SDS011;56108;48.730;9.304;2023-11-18T08:16:44;5.63;;;4.80;;
966;SDS011;56108;48.730;9.304;2023-11-18T08:18:52;5.85;;;4.32;;
966;SDS011;56108;48.730;9.304;2023-11-18T08:21:01;5.18;;;4.78;;
966;SDS011;56108;48.730;9.304;2023-11-18T08:23:11;5.90;;;4.47;;
966;SDS011;56108;48.730;9.304;2023-11-18T08:25:20;5.47;;;4.88;;
966;SDS011;56108;48.730;9.304;2023-11-18T08:27:28;6.45;;;4.43;;
966;SDS011;56108;48.730;9.304;2023-11-18T08:29:37;5.05;;;3.85;;
966;SDS011;56108;48.730;9.304;2023-11-18T08:31:48;5.13;;;4.03;;
966;SDS011;56108;48.730;9.304;2023-11-18T08:33:54;5.07;;;3.72;;
966;SDS011;56108;48.730;9.304;2023-11-18T08:36:03;4.30;;;3.63;;
966;SDS011;56108;48.730;9.304;2023-11-18T08:38:12;6.05;;;4.50;;
966;SDS011;56108;48.730;9.304;2023-11-18T08:40:22;3.70;;;3.40;;
966;SDS011;56108;48.730;9.304;2023-11-18T08:42:31;7.22;;;5.00;;
966;SDS011;56108;48.730;9.304;2023-11-18T08:44:39;4.78;;;3.88;;
966;SDS011;56108;48.730;9.304;2023-11-18T08:46:51;6.82;;;4.13;;
966;SDS011;56108;48.730;9.304;2023-11-18T08:49:02;8.15;;;4.28;;
966;SDS011;56108;48.730;9.304;2023-11-18T08:51:15;6.47;;;5.10;;
966;SDS011;56108;48.730;9.304;2023-11-18T08:53:25;4.80;;;4.30;;
966;SDS011;56108;48.730;9.304;2023-11-18T08:55:34;6.30;;;4.97;;
966;SDS011;56108;48.730;9.304;2023-11-18T08:57:56;4.47;;;3.95;;
966;SDS011;56108;48.730;9.304;2023-11-18T09:00:09;6.13;;;4.03;;
966;SDS011;56108;48.730;9.304;2023-11-18T09:02:41;6.40;;;4.43;;
966;SDS011;56108;48.730;9.304;2023-11-18T09:04:58;4.90;;;4.50;;
966;SDS011;56108;48.730;9.304;2023-11-18T09:07:11;4.95;;;4.50;;
966;SDS011;56108;48.730;9.304;2023-11-18T09:09:20;6.93;;;4.97;;
966;SDS011;56108;48.730;9.304;2023-11-18T09:11:32;8.18;;;4.90;;
966;SDS011;56108;48.730;9.304;2023-11-18T09:13:42;6.28;;;5.68;;
966;SDS011;56108;48.730;9.304;2023-11-18T09:15:54;4.95;;;4.53;;
966;SDS011;56108;48.730;9.304;2023-11-18T09:18:07;4.85;;;4.32;;
966;SDS011;56108;48.730;9.304;2023-11-18T09:20:16;7.95;;;4.88;;
966;SDS011;56108;48.730;9.304;2023-11-18T09:22:27;8.80;;;5.20;;
966;SDS011;56108;48.730;9.304;2023-11-18T09:24:35;6.57;;;4.70;;
966;SDS011;56108;48.730;9.304;2023-11-18T09:26:43;5.40;;;4.80;;
966;SDS011;56108;48.730;9.304;2023-11-18T09:28:52;5.22;;;4.82;;
966;SDS011;56108;48.730;9.304;2023-11-18T09:31:01;5.00;;;3.85;;
966;SDS011;56108;48.730;9.304;2023-11-18T09:33:13;5.93;;;5.38;;
966;SDS011;56108;48.730;9.304;2023-11-18T09:35:19;4.55;;;3.33;;
966;SDS011;56108;48.730;9.304;2023-11-18T09:37:27;4.95;;;3.90;;
966;SDS011;56108;48.730;9.304;2023-11-18T09:39:35;3.33;;;3.10;;
966;SDS011;56108;48.730;9.304;2023-11-18T09:41:50;3.38;;;3.00;;
966;SDS011;56108;48.730;9.304;2023-11-18T09:44:01;3.00;;;2.80;;
966;SDS011;56108;48.730;9.304;2023-11-18T09:46:09;3.83;;;3.35;;
966;SDS011;56108;48.730;9.304;2023-11-18T09:48:20;4.35;;;3.67;;
966;SDS011;56108;48.730;9.304;2023-11-18T09:50:30;3.72;;;3.42;;
966;SDS011;56108;48.730;9.304;2023-11-18T09:52:48;3.97;;;3.50;;
966;SDS011;56108;48.730;9.304;2023-11-18T09:55:04;3.65;;;2.80;;
966;SDS011;56108;48.730;9.304;2023-11-18T09:57:27;3.08;;;2.85;;
966;SDS011;56108;48.730;9.304;2023-11-18T09:59:42;2.63;;;2.40;;
966;SDS011;56108;48.730;9.304;2023-11-18T10:02:03;2.95;;;2.42;;
966;SDS011;56108;48.730;9.304;2023-11-18T10:04:18;1.58;;;1.48;;
966;SDS011;56108;48.730;9.304;2023-11-18T10:06:29;1.67;;;1.58;;
966;SDS011;56108;48.730;9.304;2023-11-18T10:08:38;1.80;;;1.70;;
966;SDS011;56108;48.730;9.304;2023-11-18T10:10:50;1.60;;;1.50;;
966;SDS011;56108;48.730;9.304;2023-11-18T10:13:09;1.30;;;1.20;;
966;SDS011;56108;48.730;9.304;2023-11-18T10:15:27;1.60;;;1.50;;
966;SDS011;56108;48.730;9.304;2023-11-18T10:17:36;3.13;;;1.73;;
966;SDS011;56108;48.730;9.304;2023-11-18T10:20:02;3.17;;;2.03;;
966;SDS011;56108;48.730;9.304;2023-11-18T10:22:20;1.92;;;1.73;;
966;SDS011;56108;48.730;9.304;2023-11-18T10:24:34;2.05;;;1.95;;
966;SDS011;56108;48.730;9.304;2023-11-18T10:26:55;1.58;;;1.48;;
966;SDS011;56108;48.730;9.304;2023-11-18T10:29:05;4.30;;;3.90;;
966;SDS011;56108;48.730;9.304;2023-11-18T10:31:13;2.00;;;1.90;;
966;SDS011;56108;48.730;9.304;2023-11-18T10:33:29;2.40;;;2.20;;
966;SDS011;56108;48.730;9.304;2023-11-18T10:35:43;1.90;;;1.80;;
966;SDS011;56108;48.730;9.304;2023-11-18T10:37:55;2.35;;;2.15;;
966;SDS011;56108;48.730;9.304;2023-11-18T10:40:05;1.45;;;1.35;;
966;SDS011;56108;48.730;9.304;2023-11-18T10:42:18;1.48;;;1.38;;
966;SDS011;56108;48.730;9.304;2023-11-18T10:44:27;1.80;;;1.70;;
966;SDS011;56108;48.730;9.304;2023-11-18T10:46:34;1.42;;;1.33;;
966;SDS011;56108;48.730;9.304;2023-11-18T10:48:44;3.20;;;1.88;;
966;SDS011;56108;48.730;9.304;2023-11-18T10:50:55;1.52;;;1.42;;
966;SDS011;56108;48.730;9.304;2023-11-18T10:53:05;1.80;;;1.60;;
966;SDS011;56108;48.730;9.304;2023-11-18T10:55:16;1.83;;;1.73;;
966;SDS011;56108;48.730;9.304;2023-11-18T10:57:24;1.77;;;1.67;;
966;SDS011;56108;48.730;9.304;2023-11-18T10:59:33;2.17;;;1.98;;
966;SDS011;56108;48.730;9.304;2023-11-18T11:01:42;2.10;;;1.95;;
966;SDS011;56108;48.730;9.304;2023-11-18T11:03:55;2.28;;;2.08;;
966;SDS011;56108;48.730;9.304;2023-11-18T11:06:18;1.63;;;1.52;;
966;SDS011;56108;48.730;9.304;2023-11-18T11:08:28;3.53;;;3.22;;
966;SDS011;56108;48.730;9.304;2023-11-18T11:10:45;4.32;;;1.77;;
966;SDS011;56108;48.730;9.304;2023-11-18T11:12:55;2.55;;;2.35;;
966;SDS011;56108;48.730;9.304;2023-11-18T11:15:08;1.50;;;1.40;;
966;SDS011;56108;48.730;9.304;2023-11-18T11:17:27;1.73;;;1.63;;
966;SDS011;56108;48.730;9.304;2023-11-18T11:19:41;2.92;;;2.00;;
966;SDS011;56108;48.730;9.304;2023-11-18T11:22:03;1.73;;;1.42;;
966;SDS011;56108;48.730;9.304;2023-11-18T11:24:18;1.70;;;1.60;;
966;SDS011;56108;48.730;9.304;2023-11-18T11:26:40;2.15;;;2.05;;
966;SDS011;56108;48.730;9.304;2023-11-18T11:29:03;1.85;;;1.75;;
966;SDS011;56108;48.730;9.304;2023-11-18T11:31:20;5.38;;;1.73;;
966;SDS011;56108;48.730;9.304;2023-11-18T11:33:36;2.80;;;2.00;;
966;SDS011;56108;48.730;9.304;2023-11-18T11:35:52;1.90;;;1.80;;
966;SDS011;56108;48.730;9.304;2023-11-18T11:38:06;2.00;;;1.80;;
966;SDS011;56108;48.730;9.304;2023-11-18T11:40:18;2.25;;;2.05;;
966;SDS011;56108;48.730;9.304;2023-11-18T11:42:29;1.88;;;1.77;;
966;SDS011;56108;48.730;9.304;2023-11-18T11:44:36;2.65;;;2.10;;
966;SDS011;56108;48.730;9.304;2023-11-18T11:46:47;3.10;;;1.50;;
966;SDS011;56108;48.730;9.304;2023-11-18T11:48:58;1.70;;;1.60;;
966;SDS011;56108;48.730;9.304;2023-11-18T11:51:16;5.15;;;2.65;;
966;SDS011;56108;48.730;9.304;2023-11-18T11:53:35;3.78;;;2.17;;
966;SDS011;56108;48.730;9.304;2023-11-18T11:55:51;4.43;;;2.10;;
966;SDS011;56108;48.730;9.304;2023-11-18T12:00:36;3.08;;;2.38;;
966;SDS011;56108;48.730;9.304;2023-11-18T12:02:50;2.83;;;2.47;;
966;SDS011;56108;48.730;9.304;2023-11-18T12:05:01;2.30;;;2.13;;
966;SDS011;56108;48.730;9.304;2023-11-18T12:07:12;2.25;;;2.05;;
966;SDS011;56108;48.730;9.304;2023-11-18T12:09:30;1.95;;;1.85;;
966;SDS011;56108;48.730;9.304;2023-11-18T12:11:38;1.75;;;1.65;;
966;SDS011;56108;48.730;9.304;2023-11-18T12:14:00;2.42;;;2.17;;
966;SDS011;56108;48.730;9.304;2023-11-18T12:19:28;1.67;;;1.58;;
966;SDS011;56108;48.730;9.304;2023-11-18T12:21:53;1.45;;;1.40;;
966;SDS011;56108;48.730;9.304;2023-11-18T12:24:15;2.88;;;1.83;;
966;SDS011;56108;48.730;9.304;2023-11-18T12:26:42;5.07;;;1.98;;
966;SDS011;56108;48.730;9.304;2023-11-18T12:28:50;1.85;;;1.75;;
966;SDS011;56108;48.730;9.304;2023-11-18T12:31:00;1.92;;;1.75;;
966;SDS011;56108;48.730;9.304;2023-11-18T12:33:22;3.47;;;1.55;;
966;SDS011;56108;48.730;9.304;2023-11-18T12:35:28;1.80;;;1.70;;
966;SDS011;56108;48.730;9.304;2023-11-18T12:37:47;1.23;;;1.17;;
966;SDS011;56108;48.730;9.304;2023-11-18T12:40:28;2.70;;;1.65;;
966;SDS011;56108;48.730;9.304;2023-11-18T12:43:02;1.85;;;1.60;;
966;SDS011;56108;48.730;9.304;2023-11-18T12:45:21;1.98;;;1.55;;
966;SDS011;56108;48.730;9.304;2023-11-18T12:47:48;3.75;;;2.30;;
966;SDS011;56108;48.730;9.304;2023-11-18T12:50:05;2.38;;;1.92;;
966;SDS011;56108;48.730;9.304;2023-11-18T12:52:22;1.90;;;1.80;;
966;SDS011;56108;48.730;9.304;2023-11-18T12:54:32;1.90;;;1.80;;
966;SDS011;56108;48.730;9.304;2023-11-18T12:56:41;3.40;;;2.30;;
966;SDS011;56108;48.730;9.304;2023-11-18T12:58:56;3.38;;;2.38;;
966;SDS011;56108;48.730;9.304;2023-11-18T13:01:05;2.40;;;1.95;;
966;SDS011;56108;48.730;9.304;2023-11-18T13:03:19;1.88;;;1.77;;
966;SDS011;56108;48.730;9.304;2023-11-18T13:05:28;2.92;;;2.58;;
966;SDS011;56108;48.730;9.304;2023-11-18T13:07:37;3.85;;;2.35;;
966;SDS011;56108;48.730;9.304;2023-11-18T13:09:48;4.00;;;2.60;;
966;SDS011;56108;48.730;9.304;2023-11-18T13:11:59;6.18;;;3.72;;
966;SDS011;56108;48.730;9.304;2023-11-18T13:14:11;2.70;;;2.50;;
966;SDS011;56108;48.730;9.304;2023-11-18T13:16:21;3.20;;;2.90;;
966;SDS011;56108;48.730;9.304;2023-11-18T13:18:40;2.90;;;2.28;;
966;SDS011;56108;48.730;9.304;2023-11-18T13:20:55;4.32;;;2.85;;
966;SDS011;56108;48.730;9.304;2023-11-18T13:23:08;3.05;;;2.85;;
966;SDS011;56108;48.730;9.304;2023-11-18T13:25:17;3.53;;;2.25;;
966;SDS011;56108;48.730;9.304;2023-11-18T13:27:25;22.92;;;2.33;;
966;SDS011;56108;48.730;9.304;2023-11-18T13:29:42;3.60;;;2.30;;
966;SDS011;56108;48.730;9.304;2023-11-18T13:31:53;4.25;;;2.88;;
966;SDS011;56108;48.730;9.304;2023-11-18T13:34:02;2.90;;;2.70;;
966;SDS011;56108;48.730;9.304;2023-11-18T13:36:09;3.67;;;3.20;;
966;SDS011;56108;48.730;9.304;2023-11-18T13:38:17;3.20;;;2.83;;